Time;durP1;ratioP1;P1;durP2;ratioP2;P2;SDS_P1;SDS_P2;PMS_P1;PMS_P2;Temp;Humidity;BMP_temperature;BMP_pressure;BME280_temperature;BME280_humidity;BME280_pressure;Samples;Min_cycle;Max_cycle;Signal;HPM_P1;HPM_P2
2022/03/07 00:01:58;;;;;;;6.80;5.70;;;4.50;61.70;;;;;;5074506;28;20035;-58
2022/03/07 00:04:24;;;;;;;6.30;4.25;;;4.50;61.60;;;;;;5075068;28;20103;-58
2022/03/07 00:06:49;;;;;;;7.40;5.53;;;4.40;61.60;;;;;;5074377;28;20116;-58
2022/03/07 00:09:16;;;;;;;7.18;4.13;;;4.40;61.90;;;;;;5074243;28;20036;-58
2022/03/07 00:11:43;;;;;;;7.22;4.18;;;4.30;62.00;;;;;;5074373;28;20024;-58
2022/03/07 00:14:09;;;;;;;8.00;5.82;;;4.30;62.20;;;;;;5069648;28;20035;-58
2022/03/07 00:16:35;;;;;;;7.22;5.82;;;4.40;62.30;;;;;;5074213;28;20121;-58
2022/03/07 00:19:01;;;;;;;5.65;4.50;;;4.40;62.10;;;;;;5074086;28;20544;-58
2022/03/07 00:21:27;;;;;;;6.63;4.10;;;4.40;62.10;;;;;;5074121;28;20047;-58
2022/03/07 00:23:53;;;;;;;8.02;4.57;;;4.30;62.40;;;;;;5074101;28;20037;-58
2022/03/07 00:26:19;;;;;;;6.90;5.18;;;4.30;62.40;;;;;;5073709;28;20579;-58
2022/03/07 00:28:47;;;;;;;6.68;5.70;;;4.40;62.40;;;;;;5073509;28;20507;-58
2022/03/07 00:31:13;;;;;;;7.38;4.53;;;4.40;62.20;;;;;;5065651;28;20128;-58
2022/03/07 00:33:40;;;;;;;6.95;5.57;;;4.30;62.20;;;;;;5074149;28;20028;-58
2022/03/07 00:36:06;;;;;;;7.18;4.22;;;4.40;62.30;;;;;;5073736;28;20035;-58
2022/03/07 00:38:33;;;;;;;6.38;5.55;;;4.30;62.20;;;;;;5073601;28;20048;-58
2022/03/07 00:40:59;;;;;;;7.63;4.63;;;4.30;62.50;;;;;;5073864;28;20534;-58
2022/03/07 00:43:25;;;;;;;7.53;6.20;;;4.20;62.50;;;;;;5073682;28;20024;-58
2022/03/07 00:45:51;;;;;;;5.95;4.13;;;4.20;62.60;;;;;;5073930;28;20380;-58
2022/03/07 00:48:17;;;;;;;7.18;5.95;;;4.20;62.60;;;;;;5069143;28;20531;-58
2022/03/07 00:50:45;;;;;;;6.88;5.53;;;4.30;62.80;;;;;;5073563;28;20033;-58
2022/03/07 00:53:17;;;;;;;7.82;4.45;;;4.30;62.70;;;;;;5073410;28;20035;-58
2022/03/07 00:55:43;;;;;;;6.68;4.28;;;4.30;62.50;;;;;;5073724;28;20042;-58
2022/03/07 00:58:09;;;;;;;7.47;5.85;;;4.30;62.70;;;;;;5073221;28;20033;-58
2022/03/07 01:00:36;;;;;;;6.30;5.70;;;4.30;63.20;;;;;;5073338;28;20024;-58
2022/03/07 01:03:03;;;;;;;6.88;5.90;;;4.40;62.30;;;;;;5073182;28;20036;-58
2022/03/07 01:05:29;;;;;;;6.85;5.75;;;4.40;62.00;;;;;;5061849;28;20108;-58
2022/03/07 01:07:55;;;;;;;6.65;5.78;;;4.50;62.00;;;;;;5071823;28;20463;-58
2022/03/07 01:10:20;;;;;;;7.53;4.47;;;4.50;62.00;;;;;;5073064;28;20047;-58
2022/03/07 01:12:46;;;;;;;7.75;4.57;;;4.40;61.80;;;;;;5073363;28;20021;-58
2022/03/07 01:15:14;;;;;;;7.60;5.57;;;4.40;62.00;;;;;;5073400;28;20029;-58
2022/03/07 01:17:40;;;;;;;7.38;5.90;;;4.40;62.10;;;;;;5072921;28;20097;-58
2022/03/07 01:20:07;;;;;;;6.00;4.47;;;4.50;62.00;;;;;;5073012;28;20099;-58
2022/03/07 01:22:32;;;;;;;6.43;4.38;;;4.40;61.90;;;;;;5066164;28;20021;-58
2022/03/07 01:24:58;;;;;;;8.48;5.75;;;4.40;62.00;;;;;;5067084;28;20017;-58
2022/03/07 01:27:24;;;;;;;6.80;5.70;;;4.40;62.30;;;;;;5072654;28;20025;-58
2022/03/07 01:29:50;;;;;;;7.60;4.93;;;4.50;62.40;;;;;;5080770;28;20031;-58
2022/03/07 01:32:15;;;;;;;8.88;5.55;;;4.40;62.20;;;;;;5056226;28;20037;-58
2022/03/07 01:34:42;;;;;;;7.38;5.82;;;4.40;62.50;;;;;;5072636;28;20025;-58
2022/03/07 01:37:07;;;;;;;8.07;4.60;;;4.50;62.50;;;;;;5072836;28;20024;-58
2022/03/07 01:39:33;;;;;;;8.88;5.85;;;4.40;62.40;;;;;;5071142;28;20128;-58
2022/03/07 01:41:59;;;;;;;7.40;5.95;;;4.40;62.50;;;;;;5072696;28;20020;-58
2022/03/07 01:44:28;;;;;;;9.85;4.90;;;4.50;62.50;;;;;;5072655;28;20020;-58
2022/03/07 01:46:55;;;;;;;7.20;5.97;;;4.40;62.40;;;;;;5072514;28;20024;-58
2022/03/07 01:49:21;;;;;;;7.88;6.57;;;4.50;62.50;;;;;;5072896;28;20107;-58
2022/03/07 01:51:48;;;;;;;6.45;4.53;;;4.50;62.30;;;;;;5072529;28;20376;-58
2022/03/07 01:54:16;;;;;;;8.98;5.40;;;4.50;62.30;;;;;;5072610;28;20070;-57
2022/03/07 01:56:45;;;;;;;7.35;4.85;;;4.40;62.50;;;;;;5061634;28;20515;-58
2022/03/07 01:59:12;;;;;;;6.63;5.65;;;4.40;62.60;;;;;;5072353;28;20105;-58
2022/03/07 02:01:40;;;;;;;9.30;6.70;;;4.50;62.70;;;;;;5072552;28;20354;-58
2022/03/07 02:04:05;;;;;;;8.57;6.70;;;4.50;62.50;;;;;;5072496;28;20488;-58
2022/03/07 02:06:31;;;;;;;8.82;4.72;;;4.50;62.50;;;;;;5072381;28;20020;-58
2022/03/07 02:08:58;;;;;;;6.07;4.25;;;4.50;62.40;;;;;;5072717;28;20127;-58
2022/03/07 02:11:25;;;;;;;6.35;5.18;;;4.50;62.40;;;;;;5072298;28;20027;-58
2022/03/07 02:13:52;;;;;;;6.47;5.40;;;4.50;62.40;;;;;;5068621;28;20056;-58
2022/03/07 02:16:19;;;;;;;7.90;4.43;;;4.50;62.30;;;;;;5072193;28;20024;-58
2022/03/07 02:18:46;;;;;;;6.78;5.40;;;4.50;62.30;;;;;;5072267;28;20503;-58
2022/03/07 02:21:14;;;;;;;7.05;5.47;;;4.50;62.30;;;;;;5072084;28;20090;-58
2022/03/07 02:23:41;;;;;;;7.00;5.53;;;4.50;62.10;;;;;;5075898;28;20070;-58
2022/03/07 02:26:15;;;;;;;5.40;4.85;;;4.50;61.90;;;;;;5075998;28;20021;-58
2022/03/07 02:28:46;;;;;;;5.28;3.83;;;4.50;61.50;;;;;;5076318;28;20056;-58
2022/03/07 02:31:16;;;;;;;5.90;5.30;;;4.50;61.50;;;;;;5064312;28;20024;-58
2022/03/07 02:33:42;;;;;;;5.05;3.90;;;4.50;61.30;;;;;;5076284;28;20024;-58
2022/03/07 02:36:08;;;;;;;5.85;5.20;;;4.40;61.20;;;;;;5076137;28;20035;-58
2022/03/07 02:38:34;;;;;;;6.20;5.13;;;4.40;61.30;;;;;;5075569;28;20033;-58
2022/03/07 02:41:00;;;;;;;5.85;4.38;;;4.40;61.30;;;;;;5075892;28;20036;-58
2022/03/07 02:43:27;;;;;;;6.22;3.83;;;4.40;61.60;;;;;;5075979;28;20487;-58
2022/03/07 02:45:53;;;;;;;4.00;3.53;;;4.30;61.70;;;;;;5075850;28;20447;-58
2022/03/07 02:48:19;;;;;;;5.60;4.65;;;4.30;61.90;;;;;;5068755;28;20112;-58
2022/03/07 02:50:45;;;;;;;6.93;4.90;;;4.40;61.90;;;;;;5075983;28;20032;-57
2022/03/07 02:53:12;;;;;;;5.65;3.67;;;4.40;61.30;;;;;;5076018;28;20524;-58
2022/03/07 02:55:38;;;;;;;5.90;4.95;;;4.30;61.30;;;;;;5075717;28;20032;-58
2022/03/07 02:58:04;;;;;;;6.60;3.90;;;4.40;61.30;;;;;;5075870;28;20028;-58
2022/03/07 03:00:30;;;;;;;5.82;4.93;;;4.30;61.30;;;;;;5075882;28;20025;-58
2022/03/07 03:02:57;;;;;;;7.28;3.97;;;4.40;61.30;;;;;;5075643;28;20020;-58
2022/03/07 03:05:24;;;;;;;4.65;3.53;;;4.30;61.30;;;;;;5072764;28;20017;-58
2022/03/07 03:07:51;;;;;;;5.43;4.68;;;4.30;61.30;;;;;;5075492;28;20021;-58
2022/03/07 03:10:18;;;;;;;5.85;3.92;;;4.30;61.30;;;;;;5075365;28;20028;-58
2022/03/07 03:12:45;;;;;;;4.63;4.07;;;4.20;61.30;;;;;;5075510;28;20443;-58
2022/03/07 03:15:11;;;;;;;5.85;4.82;;;4.20;61.40;;;;;;5075297;28;20099;-58
2022/03/07 03:17:44;;;;;;;5.53;3.50;;;4.30;61.60;;;;;;5075268;28;20075;-58
2022/03/07 03:20:11;;;;;;;5.15;4.53;;;4.30;61.50;;;;;;5074237;28;20078;-58
2022/03/07 03:22:38;;;;;;;5.53;4.10;;;4.30;61.50;;;;;;5067160;28;20039;-57
2022/03/07 03:25:05;;;;;;;5.85;3.53;;;4.30;61.40;;;;;;5075176;28;20393;-56
2022/03/07 03:27:31;;;;;;;5.60;4.50;;;4.20;61.50;;;;;;5057056;28;20108;-58
2022/03/07 03:29:57;;;;;;;5.63;4.18;;;4.30;61.60;;;;;;5075142;28;20024;-58
2022/03/07 03:32:25;;;;;;;5.78;4.72;;;4.20;61.40;;;;;;5074819;28;20496;-58
2022/03/07 03:34:50;;;;;;;7.15;4.20;;;4.30;61.40;;;;;;5075017;28;20032;-58
2022/03/07 03:37:16;;;;;;;5.95;4.90;;;4.20;61.30;;;;;;5072811;28;20408;-58
2022/03/07 03:39:42;;;;;;;7.03;4.13;;;4.30;61.40;;;;;;5065731;28;20044;-58
2022/03/07 03:42:08;;;;;;;6.70;4.05;;;4.20;61.30;;;;;;5074876;28;20406;-58
2022/03/07 03:44:34;;;;;;;4.00;3.53;;;4.20;61.50;;;;;;5074237;28;20009;-58
2022/03/07 03:46:59;;;;;;;4.40;3.42;;;4.20;61.70;;;;;;5074655;28;20185;-58
2022/03/07 03:49:25;;;;;;;6.20;4.70;;;4.10;61.90;;;;;;5074839;28;20021;-58
2022/03/07 03:51:51;;;;;;;5.63;3.30;;;4.20;62.10;;;;;;5074685;28;20488;-58
2022/03/07 03:54:16;;;;;;;4.53;4.03;;;4.10;62.20;;;;;;5072677;28;21075;-58
2022/03/07 03:56:42;;;;;;;4.45;3.30;;;4.10;62.50;;;;;;5073327;28;20112;-58
2022/03/07 03:59:08;;;;;;;4.43;3.30;;;4.00;62.40;;;;;;5074517;28;20029;-58
2022/03/07 04:01:34;;;;;;;5.10;4.40;;;3.90;62.60;;;;;;5074787;28;20021;-58
2022/03/07 04:03:59;;;;;;;5.47;3.63;;;3.80;62.90;;;;;;5074556;28;20012;-58
2022/03/07 04:06:26;;;;;;;5.90;4.53;;;3.70;62.80;;;;;;5074306;28;20016;-58
2022/03/07 04:08:59;;;;;;;6.95;5.53;;;3.70;63.20;;;;;;5074341;28;20021;-58
2022/03/07 04:11:25;;;;;;;6.47;4.80;;;3.70;63.30;;;;;;5072814;28;20024;-58
2022/03/07 04:13:50;;;;;;;5.00;3.33;;;3.70;63.60;;;;;;5074302;28;20512;-58
2022/03/07 04:16:16;;;;;;;4.35;3.20;;;3.60;63.50;;;;;;5074145;28;20028;-58
2022/03/07 04:18:42;;;;;;;5.20;4.10;;;3.50;63.60;;;;;;5074215;28;20028;-58
2022/03/07 04:21:07;;;;;;;5.63;4.22;;;3.60;63.90;;;;;;5074005;28;20027;-58
2022/03/07 04:23:33;;;;;;;5.80;4.63;;;3.50;63.70;;;;;;5074195;28;20028;-58
2022/03/07 04:25:59;;;;;;;5.25;3.75;;;3.60;64.00;;;;;;5074041;28;20024;-58
2022/03/07 04:28:25;;;;;;;6.32;4.18;;;3.60;64.00;;;;;;5071025;28;20025;-57
2022/03/07 04:30:50;;;;;;;5.47;4.80;;;3.60;64.10;;;;;;5067279;28;20032;-58
2022/03/07 04:33:16;;;;;;;5.75;3.97;;;3.70;64.00;;;;;;5073941;28;20100;-58
2022/03/07 04:35:42;;;;;;;6.47;4.53;;;3.70;63.90;;;;;;5074211;28;20025;-58
2022/03/07 04:38:07;;;;;;;5.45;3.55;;;3.80;64.00;;;;;;5073509;28;20025;-58
2022/03/07 04:40:33;;;;;;;5.72;3.50;;;3.80;63.60;;;;;;5073988;28;20031;-58
2022/03/07 04:43:01;;;;;;;5.07;4.57;;;3.80;63.60;;;;;;5073712;28;20380;-58
2022/03/07 04:45:27;;;;;;;5.30;4.53;;;3.80;63.70;;;;;;5071118;28;20491;-58
2022/03/07 04:47:52;;;;;;;5.95;3.67;;;3.90;63.50;;;;;;5073739;28;20376;-58
2022/03/07 04:50:18;;;;;;;5.63;4.82;;;3.80;63.50;;;;;;5073370;28;20025;-58
2022/03/07 04:52:44;;;;;;;6.60;4.95;;;3.90;63.60;;;;;;5073450;28;20039;-58
2022/03/07 04:55:11;;;;;;;6.30;5.32;;;3.80;63.50;;;;;;5073625;28;20469;-58
2022/03/07 04:57:38;;;;;;;5.80;4.15;;;3.90;63.50;;;;;;5073543;28;20021;-58
2022/03/07 05:00:07;;;;;;;6.50;5.22;;;3.90;63.40;;;;;;5073217;28;20029;-58
2022/03/07 05:02:33;;;;;;;7.32;4.25;;;3.90;63.40;;;;;;5068941;28;20128;-58
2022/03/07 05:04:59;;;;;;;6.32;5.35;;;3.90;63.30;;;;;;5067051;28;20107;-58
2022/03/07 05:07:25;;;;;;;6.03;4.20;;;3.90;63.50;;;;;;5073227;28;20029;-58
2022/03/07 05:09:50;;;;;;;7.00;5.63;;;3.90;63.40;;;;;;5073297;28;20028;-58
2022/03/07 05:12:16;;;;;;;7.03;5.68;;;4.00;63.50;;;;;;5073313;28;20028;-58
2022/03/07 05:14:42;;;;;;;7.22;4.32;;;4.00;63.30;;;;;;5073120;28;20032;-58
2022/03/07 05:17:08;;;;;;;6.75;5.55;;;4.00;63.20;;;;;;5073063;28;20495;-58
2022/03/07 05:19:34;;;;;;;6.78;5.72;;;4.00;63.20;;;;;;5068357;28;20037;-58
2022/03/07 05:22:00;;;;;;;6.32;4.32;;;4.10;62.90;;;;;;5066026;28;20092;-58
2022/03/07 05:24:25;;;;;;;6.25;5.07;;;4.00;62.70;;;;;;5072896;28;20016;-58
2022/03/07 05:26:52;;;;;;;6.85;3.80;;;4.10;63.00;;;;;;5072912;28;20154;-58
2022/03/07 05:29:18;;;;;;;6.38;4.68;;;4.10;62.90;;;;;;5072872;28;20032;-58
2022/03/07 05:31:44;;;;;;;6.65;5.35;;;4.10;62.70;;;;;;5072825;28;20036;-58
2022/03/07 05:34:10;;;;;;;5.93;4.18;;;4.20;62.50;;;;;;5054780;28;20039;-58
2022/03/07 05:36:35;;;;;;;6.10;4.90;;;4.20;62.50;;;;;;5068174;28;20033;-58
2022/03/07 05:39:02;;;;;;;5.55;4.43;;;4.20;62.40;;;;;;5070032;28;20064;-58
2022/03/07 05:41:28;;;;;;;6.25;5.15;;;4.20;62.30;;;;;;5072883;28;20035;-58
2022/03/07 05:43:54;;;;;;;6.57;5.40;;;4.20;62.30;;;;;;5072479;28;20029;-58
2022/03/07 05:46:20;;;;;;;5.47;3.78;;;4.20;62.00;;;;;;5072628;28;20029;-58
2022/03/07 05:48:46;;;;;;;6.55;4.13;;;4.20;61.90;;;;;;5072635;28;20047;-58
2022/03/07 05:51:12;;;;;;;6.85;5.72;;;4.10;62.00;;;;;;5072659;28;20100;-58
2022/03/07 05:53:38;;;;;;;8.73;6.60;;;4.10;61.90;;;;;;5068237;28;20073;-58
2022/03/07 05:56:04;;;;;;;10.50;5.40;;;4.20;61.90;;;;;;5071511;28;20107;-57
2022/03/07 05:58:30;;;;;;;6.53;4.80;;;4.10;62.00;;;;;;5072063;28;20477;-58
2022/03/07 06:00:56;;;;;;;10.68;6.72;;;4.10;62.20;;;;;;5072551;28;20133;-58
2022/03/07 06:03:22;;;;;;;9.50;6.75;;;4.20;62.10;;;;;;5072435;28;20496;-58
2022/03/07 06:05:48;;;;;;;8.13;4.75;;;4.20;61.80;;;;;;5054889;28;20048;-57
2022/03/07 06:08:13;;;;;;;10.05;7.03;;;4.20;61.70;;;;;;5072349;28;20032;-58
2022/03/07 06:10:39;;;;;;;9.98;5.53;;;4.20;61.40;;;;;;5071910;28;20107;-58
2022/03/07 06:13:05;;;;;;;11.27;7.60;;;4.20;61.40;;;;;;5072334;28;20028;-58
2022/03/07 06:15:31;;;;;;;6.72;4.55;;;4.20;61.50;;;;;;5072165;28;20021;-58
2022/03/07 06:18:00;;;;;;;16.25;6.35;;;4.20;61.50;;;;;;5072334;28;20357;-58
2022/03/07 06:20:26;;;;;;;9.35;5.22;;;4.20;61.30;;;;;;5072169;28;20056;-58
2022/03/07 06:22:53;;;;;;;7.72;6.00;;;4.10;61.20;;;;;;5072285;28;20458;-58
2022/03/07 06:25:19;;;;;;;6.13;4.07;;;4.10;61.20;;;;;;5072182;28;20099;-58
2022/03/07 06:27:44;;;;;;;7.75;5.97;;;4.10;61.00;;;;;;5066276;28;20501;-58
2022/03/07 06:30:11;;;;;;;7.25;3.80;;;4.00;61.00;;;;;;5069691;28;20434;-58
2022/03/07 06:32:37;;;;;;;8.52;6.20;;;4.00;61.10;;;;;;5072437;28;20120;-58
2022/03/07 06:35:04;;;;;;;6.60;4.50;;;4.00;61.10;;;;;;5072346;28;20111;-58
2022/03/07 06:37:30;;;;;;;9.10;5.85;;;3.90;60.90;;;;;;5072162;28;20032;-58
2022/03/07 06:39:56;;;;;;;6.28;3.95;;;3.90;61.00;;;;;;5071942;28;20064;-58
2022/03/07 06:42:22;;;;;;;8.05;5.55;;;3.90;61.00;;;;;;5064980;28;20491;-58
2022/03/07 06:44:48;;;;;;;5.75;4.63;;;4.00;61.10;;;;;;5067514;28;20035;-58
2022/03/07 06:47:13;;;;;;;5.10;3.55;;;4.00;60.70;;;;;;5074526;28;20016;-58
2022/03/07 06:49:40;;;;;;;5.82;4.85;;;4.00;60.70;;;;;;5078577;28;20040;-58
2022/03/07 06:52:06;;;;;;;5.35;3.50;;;4.10;60.80;;;;;;5072162;28;20025;-58
2022/03/07 06:54:32;;;;;;;8.05;5.55;;;4.10;60.90;;;;;;5072439;28;20120;-59
2022/03/07 06:56:58;;;;;;;8.30;4.82;;;4.20;60.80;;;;;;5074033;28;20498;-59
2022/03/07 06:59:24;;;;;;;7.15;5.70;;;4.30;60.70;;;;;;5066320;28;20053;-59
2022/03/07 07:01:51;;;;;;;6.63;4.65;;;4.40;60.50;;;;;;5068942;28;20086;-59
2022/03/07 07:04:17;;;;;;;10.32;6.18;;;4.40;60.30;;;;;;5073061;28;20107;-59
2022/03/07 07:06:43;;;;;;;8.25;4.72;;;4.50;60.40;;;;;;5073010;28;20033;-59
2022/03/07 07:09:09;;;;;;;8.88;3.85;;;4.50;60.30;;;;;;5072534;28;20036;-59
2022/03/07 07:11:36;;;;;;;6.85;5.50;;;4.50;60.50;;;;;;5068142;28;20066;-60
2022/03/07 07:14:02;;;;;;;3.95;3.20;;;4.50;60.40;;;;;;5063041;28;20057;-58
2022/03/07 07:16:28;;;;;;;5.97;4.75;;;4.50;60.10;;;;;;5064349;28;20028;-58
2022/03/07 07:18:54;;;;;;;7.05;4.93;;;4.50;60.00;;;;;;5065331;28;20420;-60
2022/03/07 07:21:20;;;;;;;7.80;4.90;;;4.50;59.60;;;;;;5068790;28;20051;-59
2022/03/07 07:23:45;;;;;;;5.95;4.38;;;4.50;59.60;;;;;;5072604;28;20016;-59
2022/03/07 07:26:11;;;;;;;7.30;5.38;;;4.40;59.60;;;;;;5071777;28;20016;-59
2022/03/07 07:28:37;;;;;;;6.68;5.68;;;4.40;59.70;;;;;;5061978;28;20035;-59
2022/03/07 07:31:03;;;;;;;6.43;4.55;;;4.50;59.60;;;;;;5072775;28;20112;-59
2022/03/07 07:33:29;;;;;;;7.53;5.22;;;4.50;60.30;;;;;;5072042;28;20029;-59
2022/03/07 07:35:55;;;;;;;5.97;4.70;;;4.50;59.70;;;;;;5066347;28;20568;-59
2022/03/07 07:38:24;;;;;;;4.50;3.88;;;4.60;59.50;;;;;;5067724;28;20037;-59
2022/03/07 07:40:50;;;;;;;6.55;5.50;;;4.60;59.40;;;;;;5060472;28;20033;-59
2022/03/07 07:43:17;;;;;;;6.40;4.40;;;4.70;59.10;;;;;;5065188;28;20493;-62
2022/03/07 07:45:43;;;;;;;6.47;4.93;;;4.70;58.80;;;;;;5065189;28;20488;-59
2022/03/07 07:48:09;;;;;;;5.15;4.00;;;4.60;58.70;;;;;;5065852;28;20086;-60
2022/03/07 07:50:34;;;;;;;4.78;3.50;;;4.60;58.90;;;;;;5062927;28;20028;-62
2022/03/07 07:53:00;;;;;;;7.22;5.10;;;4.60;59.30;;;;;;5058235;28;20132;-62
2022/03/07 07:55:26;;;;;;;8.77;5.20;;;4.60;59.20;;;;;;5066837;28;20035;-61
2022/03/07 07:57:52;;;;;;;9.32;6.10;;;4.70;58.60;;;;;;5061364;28;20036;-61
2022/03/07 08:00:21;;;;;;;6.75;4.38;;;4.70;58.30;;;;;;5060133;28;20078;-62
2022/03/07 08:02:48;;;;;;;7.97;5.35;;;4.70;58.40;;;;;;5060694;28;20020;-62
2022/03/07 08:05:15;;;;;;;7.75;4.60;;;4.80;58.30;;;;;;5061395;28;20028;-61
2022/03/07 08:07:42;;;;;;;8.38;4.53;;;4.80;58.10;;;;;;5067440;28;20427;-62
2022/03/07 08:10:09;;;;;;;8.50;5.63;;;4.80;58.60;;;;;;5063081;28;20028;-61
2022/03/07 08:12:35;;;;;;;10.10;5.85;;;4.90;58.30;;;;;;5055615;28;22046;-61
2022/03/07 08:15:01;;;;;;;6.55;5.28;;;4.90;57.60;;;;;;5056941;28;20048;-61
2022/03/07 08:17:26;;;;;;;6.45;3.90;;;5.00;57.10;;;;;;5058555;28;20036;-60
2022/03/07 08:19:52;;;;;;;6.10;4.30;;;4.90;57.60;;;;;;5060679;28;20029;-59
2022/03/07 08:22:18;;;;;;;5.10;3.63;;;4.90;56.90;;;;;;5060173;28;20090;-61
2022/03/07 08:24:43;;;;;;;4.57;3.80;;;4.80;56.90;;;;;;5061289;28;20121;-61
2022/03/07 08:27:09;;;;;;;5.47;4.57;;;4.80;57.20;;;;;;5059991;28;20332;-61
2022/03/07 08:29:35;;;;;;;3.90;3.17;;;4.90;56.90;;;;;;5061954;28;20028;-62
2022/03/07 08:32:01;;;;;;;5.85;4.30;;;4.80;56.80;;;;;;5053500;28;20110;-61
2022/03/07 08:34:26;;;;;;;4.22;3.03;;;4.80;56.10;;;;;;5061564;28;20041;-61
2022/03/07 08:36:52;;;;;;;4.32;3.72;;;4.70;55.90;;;;;;5053721;28;20029;-61
2022/03/07 08:39:18;;;;;;;6.32;4.53;;;4.70;55.80;;;;;;5051735;28;20037;-60
2022/03/07 08:41:43;;;;;;;6.40;4.80;;;4.80;55.80;;;;;;5063995;28;20043;-61
2022/03/07 08:44:09;;;;;;;5.85;3.60;;;4.80;56.30;;;;;;5068527;28;20035;-61
2022/03/07 08:46:35;;;;;;;5.13;4.20;;;4.80;55.80;;;;;;5060377;28;20024;-61
2022/03/07 08:49:01;;;;;;;5.35;4.28;;;4.80;55.80;;;;;;5068463;28;20078;-61
2022/03/07 08:51:27;;;;;;;5.30;3.92;;;4.90;55.40;;;;;;5064850;28;20029;-61
2022/03/07 08:53:52;;;;;;;4.78;3.80;;;4.90;55.60;;;;;;5070966;28;20484;-61
2022/03/07 08:56:18;;;;;;;7.43;5.22;;;4.90;56.10;;;;;;5070108;28;20025;-60
2022/03/07 08:58:44;;;;;;;5.47;3.83;;;5.00;55.80;;;;;;5061998;28;20036;-61
2022/03/07 09:01:10;;;;;;;5.45;4.53;;;5.00;55.80;;;;;;5058407;28;20064;-61
2022/03/07 09:03:35;;;;;;;4.25;3.58;;;5.20;55.40;;;;;;5057080;28;20033;-61
2022/03/07 09:06:01;;;;;;;6.53;4.90;;;5.20;55.30;;;;;;5059384;28;20033;-60
2022/03/07 09:08:27;;;;;;;5.90;4.93;;;5.20;55.30;;;;;;5066412;28;20028;-61
2022/03/07 09:10:53;;;;;;;5.88;3.80;;;5.30;54.50;;;;;;5062128;28;20452;-61
2022/03/07 09:13:18;;;;;;;7.63;4.47;;;5.20;54.40;;;;;;5060582;28;20103;-61
2022/03/07 09:15:45;;;;;;;6.20;4.68;;;5.30;54.50;;;;;;5058953;28;20063;-60
2022/03/07 09:18:12;;;;;;;6.60;5.43;;;5.40;54.00;;;;;;5065682;28;20515;-60
2022/03/07 09:20:39;;;;;;;5.13;3.38;;;5.50;54.00;;;;;;5059005;28;20016;-60
2022/03/07 09:23:05;;;;;;;5.88;4.88;;;5.50;54.20;;;;;;5063882;28;20078;-60
2022/03/07 09:25:31;;;;;;;4.95;3.67;;;5.50;54.40;;;;;;5069404;28;20029;-59
2022/03/07 09:27:57;;;;;;;5.72;4.57;;;5.50;54.50;;;;;;5063464;28;20453;-60
2022/03/07 09:30:23;;;;;;;7.20;5.00;;;5.50;54.70;;;;;;5066418;28;20051;-61
2022/03/07 09:32:50;;;;;;;5.18;3.85;;;5.60;54.60;;;;;;5060856;28;20032;-60
2022/03/07 09:35:16;;;;;;;5.13;4.38;;;5.70;54.30;;;;;;5059733;28;20043;-61
2022/03/07 09:37:42;;;;;;;3.97;3.38;;;5.70;54.00;;;;;;5070143;28;20028;-62
2022/03/07 09:40:08;;;;;;;4.70;4.30;;;5.60;54.00;;;;;;5065374;28;20048;-62
2022/03/07 09:42:34;;;;;;;6.30;4.63;;;5.70;54.00;;;;;;5058437;28;20047;-62
2022/03/07 09:45:00;;;;;;;6.72;5.15;;;5.60;53.60;;;;;;5060339;28;20025;-61
2022/03/07 09:47:26;;;;;;;7.40;5.50;;;5.70;53.90;;;;;;5073102;28;20036;-61
2022/03/07 09:49:52;;;;;;;7.15;5.20;;;5.70;53.90;;;;;;5066389;28;20096;-62
2022/03/07 09:52:19;;;;;;;5.00;3.70;;;5.80;53.90;;;;;;5063315;28;20063;-60
2022/03/07 09:54:44;;;;;;;5.88;4.70;;;5.80;53.80;;;;;;5068055;28;20041;-60
2022/03/07 09:57:10;;;;;;;7.30;4.75;;;5.80;53.60;;;;;;5068762;28;20374;-60
2022/03/07 09:59:36;;;;;;;7.07;3.90;;;5.80;53.30;;;;;;5064191;28;20028;-60
2022/03/07 10:02:12;;;;;;;4.30;3.90;;;5.80;53.60;;;;;;5059793;28;20044;-60
2022/03/07 10:04:45;;;;;;;5.45;4.38;;;5.90;54.10;;;;;;5061905;28;20491;-60
2022/03/07 10:07:12;;;;;;;6.22;4.55;;;5.90;53.30;;;;;;5061627;28;20045;-61
2022/03/07 10:09:38;;;;;;;5.78;4.57;;;5.90;53.20;;;;;;5062655;28;20036;-61
2022/03/07 10:12:05;;;;;;;5.65;4.00;;;5.90;53.10;;;;;;5066011;28;20388;-61
2022/03/07 10:14:37;;;;;;;4.57;3.45;;;5.90;53.00;;;;;;5063116;28;20550;-61
2022/03/07 10:17:03;;;;;;;7.43;4.85;;;5.80;53.30;;;;;;5058662;28;20020;-61
2022/03/07 10:19:29;;;;;;;8.02;4.47;;;5.80;53.50;;;;;;5068321;28;20463;-61
2022/03/07 10:21:55;;;;;;;5.45;3.60;;;5.70;53.30;;;;;;5063736;28;20048;-62
2022/03/07 10:24:34;;;;;;;5.32;4.40;;;5.70;53.70;;;;;;5060202;28;20031;-61
2022/03/07 10:27:01;;;;;;;5.70;4.60;;;5.70;53.90;;;;;;5066756;28;20028;-62
2022/03/07 10:29:26;;;;;;;5.57;3.75;;;5.70;53.40;;;;;;5067375;28;20021;-62
2022/03/07 10:31:52;;;;;;;5.68;4.20;;;5.70;53.40;;;;;;5061277;28;20036;-62
2022/03/07 10:34:18;;;;;;;7.55;5.38;;;5.70;53.60;;;;;;5063611;28;20036;-62
2022/03/07 10:36:46;;;;;;;7.15;5.53;;;5.70;53.70;;;;;;5066188;28;20404;-61
2022/03/07 10:39:15;;;;;;;5.78;4.50;;;5.80;53.60;;;;;;5066041;28;20044;-61
2022/03/07 10:41:47;;;;;;;5.70;4.82;;;5.80;53.50;;;;;;5057119;28;20017;-62
2022/03/07 10:44:28;;;;;;;5.28;3.30;;;5.80;53.20;;;;;;5065487;28;20048;-62
2022/03/07 10:47:14;;;;;;;;;;;5.70;53.50;;;;;;5063194;28;20037;-61
2022/03/07 10:49:57;;;;;;;5.25;4.13;;;5.70;53.40;;;;;;5060903;28;19915;-61
2022/03/07 10:52:25;;;;;;;6.53;4.90;;;5.70;53.60;;;;;;5062584;28;20039;-62
2022/03/07 10:54:51;;;;;;;6.32;4.70;;;5.70;53.70;;;;;;5065689;28;20455;-63
2022/03/07 10:57:18;;;;;;;4.95;4.32;;;5.70;53.50;;;;;;5062855;28;20052;-63
2022/03/07 10:59:45;;;;;;;6.47;4.68;;;5.70;53.60;;;;;;5071317;28;20037;-63
2022/03/07 11:02:14;;;;;;;6.35;3.67;;;5.70;53.80;;;;;;5068240;28;20028;-63
2022/03/07 11:04:45;;;;;;;5.47;3.80;;;5.60;54.00;;;;;;5074625;28;20025;-63
2022/03/07 11:07:12;;;;;;;5.22;3.60;;;5.60;54.40;;;;;;5069798;28;20090;-63
2022/03/07 11:09:39;;;;;;;8.35;4.25;;;5.60;54.70;;;;;;5070487;28;20036;-63
2022/03/07 11:12:09;;;;;;;5.97;4.97;;;5.60;54.90;;;;;;5060722;28;20090;-64
2022/03/07 11:14:38;;;;;;;7.18;5.22;;;5.70;55.10;;;;;;5069779;28;20108;-63
2022/03/07 11:17:06;;;;;;;10.63;4.15;;;5.70;55.20;;;;;;5067453;28;20430;-61
2022/03/07 11:19:32;;;;;;;4.90;4.35;;;5.60;55.10;;;;;;5070188;28;20024;-62
2022/03/07 11:21:58;;;;;;;5.25;4.50;;;5.60;54.90;;;;;;5070079;28;20048;-62
2022/03/07 11:24:26;;;;;;;5.47;4.68;;;5.60;54.80;;;;;;5062758;28;20591;-62
2022/03/07 11:26:54;;;;;;;5.05;4.53;;;5.60;55.00;;;;;;5069930;28;20082;-62
2022/03/07 11:29:30;;;;;;;5.63;4.88;;;5.50;55.30;;;;;;5063007;28;20087;-62
2022/03/07 11:32:03;;;;;;;6.40;3.90;;;5.50;55.30;;;;;;5067824;28;20541;-61
2022/03/07 11:34:29;;;;;;;5.70;4.70;;;5.50;55.40;;;;;;5065328;28;20086;-61
2022/03/07 11:36:55;;;;;;;5.63;5.00;;;5.50;55.70;;;;;;5064913;28;20025;-62
2022/03/07 11:39:35;;;;;;;5.40;4.90;;;5.50;55.50;;;;;;5070027;28;20770;-62
2022/03/07 11:42:12;;;;;;;7.00;5.75;;;5.50;55.60;;;;;;5067704;28;20024;-62
2022/03/07 11:44:38;;;;;;;5.13;4.13;;;5.50;55.80;;;;;;5067152;28;20021;-62
2022/03/07 11:47:16;;;;;;;6.28;5.50;;;5.50;56.10;;;;;;5076013;28;20039;-61
2022/03/07 11:49:43;;;;;;;6.40;4.70;;;5.60;56.50;;;;;;5064196;28;20401;-61
2022/03/07 11:52:17;;;;;;;7.15;5.72;;;5.60;56.70;;;;;;5070477;28;20032;-61
2022/03/07 11:54:57;;;;;;;8.60;6.35;;;5.70;56.80;;;;;;5067355;28;20036;-61
2022/03/07 11:57:38;;;;;;;9.38;6.43;;;5.80;56.60;;;;;;5070733;28;20043;-61
2022/03/07 12:00:22;;;;;;;6.57;4.63;;;5.90;57.30;;;;;;5068355;28;20024;-61
2022/03/07 12:02:59;;;;;;;7.95;5.50;;;5.90;56.70;;;;;;5080665;28;20265;-61
2022/03/07 12:05:32;;;;;;;7.40;5.70;;;5.90;56.60;;;;;;5066662;28;20028;-61
2022/03/07 12:08:15;;;;;;;5.38;3.80;;;6.00;56.90;;;;;;5067104;28;20024;-61
2022/03/07 12:10:55;;;;;;;7.40;6.03;;;5.90;56.90;;;;;;5065586;28;20020;-61
2022/03/07 12:13:22;;;;;;;9.05;5.75;;;6.00;57.80;;;;;;5065198;28;20389;-61
2022/03/07 12:15:52;;;;;;;8.52;6.10;;;6.00;57.30;;;;;;5067021;28;20017;-62
2022/03/07 12:18:19;;;;;;;7.50;6.03;;;6.10;57.00;;;;;;5073374;28;20544;-61
2022/03/07 12:20:51;;;;;;;7.82;6.35;;;6.10;57.00;;;;;;5067030;28;20036;-62
2022/03/07 12:23:19;;;;;;;6.00;4.35;;;6.10;56.90;;;;;;5066745;28;20484;-63
2022/03/07 12:25:45;;;;;;;8.27;5.97;;;6.00;56.90;;;;;;5069567;28;20029;-62
2022/03/07 12:28:12;;;;;;;9.15;6.65;;;6.10;57.20;;;;;;5075321;28;20397;-63
2022/03/07 12:30:38;;;;;;;8.38;6.63;;;6.10;57.40;;;;;;5067024;28;20036;-62
2022/03/07 12:33:11;;;;;;;8.05;6.82;;;6.10;57.90;;;;;;5059795;28;20053;-63
2022/03/07 12:35:37;;;;;;;5.57;4.30;;;6.10;58.40;;;;;;5061746;28;20024;-63
2022/03/07 12:38:09;;;;;;;6.72;5.57;;;6.10;58.50;;;;;;5066902;28;20052;-63
2022/03/07 12:40:37;;;;;;;8.43;6.20;;;6.10;58.60;;;;;;5063031;28;20114;-64
2022/03/07 12:43:04;;;;;;;6.93;5.82;;;6.10;58.70;;;;;;5056060;28;20074;-63
2022/03/07 12:45:31;;;;;;;6.13;5.53;;;6.10;58.70;;;;;;5060926;28;20024;-63
2022/03/07 12:47:57;;;;;;;7.60;4.28;;;6.00;58.70;;;;;;5060432;28;20480;-63
2022/03/07 12:50:32;;;;;;;6.88;6.10;;;6.00;58.80;;;;;;5063380;28;20031;-63
2022/03/07 12:52:58;;;;;;;8.38;6.82;;;6.00;59.10;;;;;;5067987;28;20477;-63
2022/03/07 12:55:24;;;;;;;8.20;5.25;;;6.00;59.80;;;;;;5066396;28;20035;-63
2022/03/07 12:57:59;;;;;;;8.25;6.90;;;6.00;59.20;;;;;;5065872;28;20062;-63